Time;durP1;ratioP1;P1;durP2;ratioP2;P2;SDS_P1;SDS_P2;PMS_P1;PMS_P2;Temp;Humidity;BMP_temperature;BMP_pressure;BME280_temperature;BME280_humidity;BME280_pressure;Samples;Min_cycle;Max_cycle;Signal;HPM_P1;HPM_P2
2023/01/30 12:03:13;;;;;;;;;;;1.50;99.90;;;;;;5190538;23;19921;-83
2023/01/30 12:05:42;;;;;;;;;;;1.40;99.90;;;;;;4998485;28;19914;-84
2023/01/30 12:08:13;;;;;;;;;;;1.50;99.90;;;;;;4997702;28;19910;-83
2023/01/30 12:10:43;;;;;;;;;;;1.50;99.90;;;;;;5000455;28;19914;-84
2023/01/30 12:13:32;;;;;;;;;;;1.50;99.90;;;;;;4999950;28;19942;-84
2023/01/30 12:16:05;;;;;;;;;;;1.40;99.90;;;;;;4992236;28;19953;-82
2023/01/30 12:18:37;;;;;;;;;;;1.40;99.90;;;;;;5000358;28;19894;-84
2023/01/30 12:21:12;;;;;;;;;;;1.50;99.90;;;;;;4997931;28;19973;-83
2023/01/30 12:23:57;;;;;;;;;;;1.50;99.90;;;;;;4998787;28;19913;-84
2023/01/30 12:26:29;;;;;;;;;;;1.50;99.90;;;;;;4999351;28;19890;-84
2023/01/30 12:29:13;;;;;;;;;;;1.60;99.90;;;;;;4999453;28;19890;-84
2023/01/30 12:31:43;;;;;;;;;;;1.60;99.90;;;;;;4999645;28;19906;-84
2023/01/30 12:34:09;;;;;;;;;;;1.70;99.90;;;;;;4997082;28;19910;-83
2023/01/30 12:36:55;;;;;;;;;;;1.60;99.90;;;;;;4996938;28;19906;-83
2023/01/30 12:39:39;;;;;;;;;;;1.70;99.90;;;;;;4998354;28;19970;-84
2023/01/30 12:42:05;;;;;;;;;;;1.60;99.90;;;;;;4998971;28;19907;-84
2023/01/30 12:44:38;;;;;;;;;;;1.70;99.90;;;;;;4999231;28;19917;-84
2023/01/30 12:47:05;;;;;;;;;;;1.70;99.90;;;;;;4998597;28;19906;-84
2023/01/30 12:49:50;;;;;;;;;;;1.70;99.90;;;;;;4998776;28;19897;-82
2023/01/30 12:52:25;;;;;;;;;;;1.70;99.90;;;;;;4996351;28;19914;-84
2023/01/30 12:54:56;;;;;;;;;;;1.60;99.90;;;;;;4997267;28;19917;-84
2023/01/30 12:57:32;;;;;;;;;;;1.60;99.90;;;;;;4998067;28;19890;-84
2023/01/30 13:00:07;;;;;;;;;;;1.60;99.90;;;;;;4998515;28;19906;-84
2023/01/30 13:02:41;;;;;;;;;;;1.60;99.90;;;;;;4998239;28;19918;-83
2023/01/30 13:05:20;;;;;;;;;;;1.70;99.90;;;;;;4996948;28;19965;-84
2023/01/30 13:07:54;;;;;;;;;;;1.60;99.90;;;;;;4996324;28;19912;-83
2023/01/30 13:10:38;;;;;;;;;;;1.60;99.90;;;;;;4996917;28;19906;-84
2023/01/30 13:13:19;;;;;;;;;;;1.60;99.90;;;;;;4999588;28;19913;-84
2023/01/30 13:16:08;;;;;;;;;;;1.60;99.90;;;;;;4996849;28;19906;-84
2023/01/30 13:18:39;;;;;;;;;;;1.60;99.90;;;;;;4996766;28;19906;-83
2023/01/30 13:21:11;;;;;;;;;;;1.70;99.90;;;;;;4996352;28;19918;-84
2023/01/30 13:23:37;;;;;;;;;;;1.60;99.90;;;;;;4996112;28;19906;-84
2023/01/30 13:26:05;;;;;;;;;;;1.60;99.90;;;;;;4996588;28;19913;-83
2023/01/30 13:28:35;;;;;;;;;;;1.60;99.90;;;;;;4995877;28;19906;-83
2023/01/30 13:31:04;;;;;;;;;;;1.60;99.90;;;;;;4996752;28;19913;-84
2023/01/30 13:33:36;;;;;;;;;;;1.60;99.90;;;;;;4995992;28;19925;-84
2023/01/30 13:36:02;;;;;;;;;;;1.60;99.90;;;;;;4998214;28;19910;-83
2023/01/30 13:38:29;;;;;;;;;;;1.60;99.90;;;;;;4996704;28;19929;-84
2023/01/30 13:40:56;;;;;;;;;;;1.60;99.90;;;;;;4994308;28;19961;-84
2023/01/30 13:43:24;;;;;;;;;;;1.50;99.90;;;;;;4994694;28;19897;-84
2023/01/30 13:45:52;;;;;;;;;;;1.50;99.90;;;;;;4996183;28;19910;-83
2023/01/30 13:48:34;;;;;;;;;;;1.50;99.90;;;;;;4996228;28;19906;-84
2023/01/30 13:51:18;;;;;;;;;;;1.50;99.90;;;;;;4995804;28;19910;-82
2023/01/30 13:53:59;;;;;;;;;;;1.50;99.90;;;;;;4995332;28;20004;-82
2023/01/30 13:56:25;;;;;;;;;;;1.50;99.90;;;;;;4996762;28;19906;-84
2023/01/30 13:58:57;;;;;;;;;;;1.40;99.90;;;;;;4996145;28;19913;-83
2023/01/30 14:01:29;;;;;;;;;;;1.40;99.90;;;;;;4995814;28;19906;-83
2023/01/30 14:04:15;;;;;;;;;;;1.40;99.90;;;;;;4994667;28;19918;-83
2023/01/30 14:06:40;;;;;;;;;;;1.50;99.90;;;;;;4995082;28;20028;-83
2023/01/30 14:09:23;;;;;;;;;;;1.50;99.90;;;;;;4995243;28;19913;-83
2023/01/30 14:11:56;;;;;;;;;;;1.50;99.90;;;;;;4994537;28;19967;-84
2023/01/30 14:14:24;;;;;;;;;;;1.50;99.90;;;;;;4994715;28;19914;-83
2023/01/30 14:16:51;;;;;;;;;;;1.50;99.90;;;;;;4995637;28;19910;-83
2023/01/30 14:19:27;;;;;;;;;;;1.60;99.90;;;;;;4994944;28;19912;-84
2023/01/30 14:21:54;;;;;;;;;;;1.60;99.90;;;;;;4995817;28;19988;-82
2023/01/30 14:24:23;;;;;;;;;;;1.60;99.90;;;;;;4995150;28;19910;-84
2023/01/30 14:26:49;;;;;;;;;;;1.70;99.90;;;;;;4998234;28;19961;-84
2023/01/30 14:29:33;;;;;;;;;;;1.70;99.90;;;;;;4996775;28;20355;-84
2023/01/30 14:31:59;;;;;;;;;;;1.80;99.90;;;;;;4996614;28;19914;-84
2023/01/30 14:34:37;;;;;;;;;;;1.60;99.90;;;;;;4997337;28;19890;-84
2023/01/30 14:37:23;;;;;;;;;;;1.70;99.90;;;;;;4999529;28;19894;-84
2023/01/30 14:39:51;;;;;;;;;;;1.70;99.90;;;;;;4997413;28;19985;-84
2023/01/30 14:42:24;;;;;;;;;;;1.70;99.90;;;;;;4998738;28;19894;-84
2023/01/30 14:47:25;;;;;;;;;;;1.70;99.90;;;;;;4948730;23;19973;-75
2023/01/30 14:49:51;;;;;;;;;;;1.70;99.90;;;;;;4949612;29;19961;-75
2023/01/30 14:52:43;;;;;;;;;;;1.70;99.90;;;;;;4951376;29;19915;-75
2023/01/30 14:55:19;;;;;;;;;;;1.70;99.90;;;;;;4947021;28;20031;-74
2023/01/30 14:57:51;;;;;;;;;;;1.70;99.90;;;;;;4955007;28;19910;-75
2023/01/30 15:00:18;;;;;;;;;;;1.70;99.90;;;;;;4953745;28;20318;-75
2023/01/30 15:02:50;;;;;;;;;;;1.70;99.90;;;;;;4954780;28;20507;-73
2023/01/30 15:05:24;;;;;;;;;;;1.60;99.90;;;;;;4954570;28;20005;-75
2023/01/30 15:07:55;;;;;;;;;;;1.60;99.90;;;;;;4954536;28;19989;-73
2023/01/30 15:10:39;;;;;;;;;;;1.60;99.90;;;;;;4953235;29;19907;-73
2023/01/30 15:13:11;;;;;;;;;;;1.60;99.90;;;;;;4953250;28;19925;-75
2023/01/30 15:15:45;;;;;;;;;;;1.60;99.90;;;;;;4954758;29;19953;-75
2023/01/30 15:18:24;;;;;;;;;;;1.50;99.90;;;;;;4952990;29;20016;-74
2023/01/30 15:21:02;;;;;;;;;;;1.50;99.90;;;;;;4954009;29;19973;-75
2023/01/30 15:23:46;;;;;;;;;;;1.50;99.90;;;;;;4954437;29;19918;-76
2023/01/30 15:26:23;;;;;;;;;;;1.50;99.90;;;;;;4954294;28;19954;-74
2023/01/30 15:28:55;;;;;;;;;;;1.50;99.90;;;;;;4953087;29;19910;-75
2023/01/30 15:31:22;;;;;;;;;;;1.40;99.90;;;;;;4953052;29;20367;-76
2023/01/30 15:33:48;;;;;;;;;;;1.40;99.90;;;;;;4954311;28;19918;-75
2023/01/30 15:36:27;;;;;;;;;;;1.30;99.90;;;;;;4954454;28;19918;-73
2023/01/30 15:39:00;;;;;;;;;;;1.30;99.90;;;;;;4953291;29;19997;-74
2023/01/30 15:41:28;;;;;;;;;;;1.20;99.90;;;;;;4954159;28;19915;-75
2023/01/30 15:44:02;;;;;;;;;;;1.20;99.90;;;;;;4954009;28;20136;-74
2023/01/30 15:46:58;;;;;;;;;;;1.20;99.90;;;;;;4953926;28;19907;-74
2023/01/30 15:49:47;;;;;;;;;;;1.10;99.90;;;;;;4948776;28;19918;-76
2023/01/30 15:52:17;;;;;;;;;;;1.10;99.90;;;;;;4953934;28;19910;-75
2023/01/30 15:54:52;;;;;;;;;;;1.10;99.90;;;;;;4954087;28;19914;-77
2023/01/30 15:57:28;;;;;;;;;;;1.10;99.90;;;;;;4953064;29;20344;-75
2023/01/30 15:59:55;;;;;;;;;;;1.10;99.90;;;;;;4952642;29;19934;-73
2023/01/30 16:02:41;;;;;;;;;;;1.10;99.90;;;;;;4954065;28;19911;-76
2023/01/30 16:05:14;;;;;;;;;;;1.10;99.90;;;;;;4953979;28;19907;-74
2023/01/30 16:07:40;;;;;;;;;;;1.10;99.90;;;;;;4953441;28;19906;-73
2023/01/30 16:10:11;;;;;;;;;;;1.10;99.90;;;;;;4953804;28;19921;-75
2023/01/30 16:12:39;;;;;;;;;;;1.10;99.90;;;;;;4953583;28;20371;-74
2023/01/30 16:15:11;;;;;;;;;;;1.10;99.90;;;;;;4952430;28;20037;-75
2023/01/30 16:17:37;;;;;;;;;;;1.00;99.90;;;;;;4953812;28;19907;-75
2023/01/30 16:20:03;;;;;;;;;;;1.00;99.90;;;;;;4952373;28;20402;-75
2023/01/30 16:22:31;;;;;;;;;;;1.00;99.90;;;;;;4953597;28;19966;-74
2023/01/30 16:24:57;;;;;;;;;;;1.00;99.90;;;;;;4953800;28;19997;-75
2023/01/30 16:27:26;;;;;;;;;;;1.00;99.90;;;;;;4952098;29;20000;-74
2023/01/30 16:29:54;;;;;;;;;;;1.00;99.90;;;;;;4953503;29;19949;-75
2023/01/30 16:32:27;;;;;;;;;;;0.90;99.90;;;;;;4953152;28;20509;-75
2023/01/30 16:35:12;;;;;;;;;;;0.90;99.90;;;;;;4951742;28;20288;-72
2023/01/30 16:37:37;;;;;;;;;;;0.90;99.90;;;;;;4951831;28;19993;-75
2023/01/30 16:40:12;;;;;;;;;;;0.90;99.90;;;;;;4953159;29;20010;-76
2023/01/30 16:42:38;;;;;;;;;;;0.90;99.90;;;;;;4951780;29;20392;-75
2023/01/30 16:45:06;;;;;;;;;;;0.90;99.90;;;;;;4953049;28;19911;-75
2023/01/30 16:47:33;;;;;;;;;;;0.90;99.90;;;;;;4952866;28;19918;-75
2023/01/30 16:49:59;;;;;;;;;;;0.90;99.90;;;;;;4953059;29;19993;-74
2023/01/30 16:52:28;;;;;;;;;;;0.90;99.90;;;;;;4951949;28;20338;-76
2023/01/30 16:54:55;;;;;;;;;;;0.90;99.90;;;;;;4953105;28;19917;-76
2023/01/30 16:57:36;;;;;;;;;;;0.90;99.90;;;;;;4952875;28;20000;-74
2023/01/30 17:00:21;;;;;;;;;;;0.90;99.90;;;;;;4952784;29;20359;-75
2023/01/30 17:02:54;;;;;;;;;;;0.90;99.90;;;;;;4951352;28;19928;-73
2023/01/30 17:05:22;;;;;;;;;;;0.90;99.90;;;;;;4952775;28;19906;-74
2023/01/30 17:07:48;;;;;;;;;;;0.80;99.90;;;;;;4952673;28;19993;-75
2023/01/30 17:10:26;;;;;;;;;;;0.80;99.90;;;;;;4952734;28;20359;-75
2023/01/30 17:12:54;;;;;;;;;;;0.80;99.90;;;;;;4952400;28;20334;-74
2023/01/30 17:15:19;;;;;;;;;;;0.90;99.90;;;;;;4952078;28;20375;-75
2023/01/30 17:17:45;;;;;;;;;;;0.90;99.90;;;;;;4951841;28;19910;-75
2023/01/30 17:20:11;;;;;;;;;;;0.80;99.90;;;;;;4951189;29;20264;-76
2023/01/30 17:22:39;;;;;;;;;;;0.80;99.90;;;;;;4952357;28;19911;-73
2023/01/30 17:25:06;;;;;;;;;;;0.80;99.90;;;;;;4952497;28;19910;-75
2023/01/30 17:27:32;;;;;;;;;;;0.90;99.90;;;;;;4952567;28;19910;-75
2023/01/30 17:29:58;;;;;;;;;;;0.90;99.90;;;;;;4952322;28;20442;-76
2023/01/30 17:32:23;;;;;;;;;;;0.90;99.90;;;;;;4952277;28;19976;-75
2023/01/30 17:34:49;;;;;;;;;;;0.90;99.90;;;;;;4951069;29;19917;-76
2023/01/30 17:37:20;;;;;;;;;;;0.90;99.90;;;;;;4950867;29;20366;-74
2023/01/30 17:39:46;;;;;;;;;;;1.00;99.90;;;;;;4952305;28;19921;-74
2023/01/30 17:42:12;;;;;;;;;;;1.00;99.90;;;;;;4952517;28;19906;-75
2023/01/30 17:44:38;;;;;;;;;;;1.10;99.90;;;;;;4952043;28;19969;-76
2023/01/30 17:47:03;;;;;;;;;;;1.10;99.90;;;;;;4950768;28;20395;-75
2023/01/30 17:49:29;;;;;;;;;;;1.10;99.90;;;;;;4952056;28;19906;-75
2023/01/30 17:51:58;;;;;;;;;;;1.10;99.90;;;;;;4951906;28;20004;-75
2023/01/30 17:54:24;;;;;;;;;;;1.20;99.90;;;;;;4950912;29;19910;-76
2023/01/30 17:57:03;;;;;;;;;;;1.20;99.90;;;;;;4952180;28;20073;-75
2023/01/30 17:59:28;;;;;;;;;;;1.20;99.90;;;;;;4952167;28;20381;-76
2023/01/30 18:01:54;;;;;;;;;;;1.20;99.90;;;;;;4950509;28;19911;-74
2023/01/30 18:04:20;;;;;;;;;;;1.20;99.90;;;;;;4950880;29;19950;-74
2023/01/30 18:06:52;;;;;;;;;;;1.20;99.90;;;;;;4950396;29;19906;-74
2023/01/30 18:09:19;;;;;;;;;;;1.30;99.90;;;;;;4950731;29;19930;-75
2023/01/30 18:11:45;;;;;;;;;;;1.30;99.90;;;;;;4950463;28;19950;-73
2023/01/30 18:14:11;;;;;;;;;;;1.30;99.90;;;;;;4952231;28;19958;-75
2023/01/30 18:16:37;;;;;;;;;;;1.40;99.90;;;;;;4950337;29;19977;-75
2023/01/30 18:19:07;;;;;;;;;;;1.40;99.90;;;;;;4952125;28;19913;-75
2023/01/30 18:21:34;;;;;;;;;;;1.30;99.90;;;;;;4952068;28;19913;-75
2023/01/30 18:24:01;;;;;;;;;;;1.40;99.90;;;;;;4951941;28;19910;-74
2023/01/30 18:26:27;;;;;;;;;;;1.40;99.90;;;;;;4952070;28;19943;-75
2023/01/30 18:28:53;;;;;;;;;;;1.40;99.90;;;;;;4935059;29;20570;-75
2023/01/30 18:31:22;;;;;;;;;;;1.40;99.90;;;;;;4955614;28;19914;-76
2023/01/30 18:33:48;;;;;;;;;;;1.40;99.90;;;;;;4955621;28;19973;-75
2023/01/30 18:36:15;;;;;;;;;;;1.40;99.90;;;;;;4955439;28;19907;-75
2023/01/30 18:38:40;;;;;;;;;;;1.40;99.90;;;;;;4954249;29;19906;-74
2023/01/30 18:41:11;;;;;;;;;;;1.40;99.90;;;;;;4954125;29;19929;-73
2023/01/30 18:43:37;;;;;;;;;;;1.40;99.90;;;;;;4954216;28;19907;-74
2023/01/30 18:46:04;;;;;;;;;;;1.50;99.90;;;;;;4955344;28;19910;-75
2023/01/30 18:48:31;;;;;;;;;;;1.50;99.90;;;;;;4955351;28;20342;-76
2023/01/30 18:51:04;;;;;;;;;;;1.50;99.90;;;;;;4955351;28;19960;-77
2023/01/30 18:53:29;;;;;;;;;;;1.50;99.90;;;;;;4953934;29;19918;-76
2023/01/30 18:55:55;;;;;;;;;;;1.50;99.90;;;;;;4953858;28;19906;-74
2023/01/30 18:58:21;;;;;;;;;;;1.50;99.90;;;;;;4955187;28;19945;-75
2023/01/30 19:00:48;;;;;;;;;;;1.50;99.90;;;;;;4953819;29;19945;-75
2023/01/30 19:03:15;;;;;;;;;;;1.60;99.90;;;;;;4955076;28;20256;-75
2023/01/30 19:05:40;;;;;;;;;;;1.60;99.90;;;;;;4953701;29;19961;-75
2023/01/30 19:08:06;;;;;;;;;;;1.60;99.90;;;;;;4954010;29;19910;-74
2023/01/30 19:10:32;;;;;;;;;;;1.60;99.90;;;;;;4954948;28;19907;-74
2023/01/30 19:15:42;;;;;;;;;;;1.60;99.90;;;;;;4955154;28;19917;-76
2023/01/30 19:18:08;;;;;;;;;;;1.70;99.90;;;;;;4954763;28;20274;-75
2023/01/30 19:20:34;;;;;;;;;;;1.70;99.90;;;;;;4954491;28;19977;-75
2023/01/30 19:23:00;;;;;;;;;;;1.70;99.90;;;;;;4954441;28;20037;-73
2023/01/30 19:25:26;;;;;;;;;;;1.80;99.90;;;;;;4953326;28;19913;-75
2023/01/30 19:27:51;;;;;;;;;;;1.80;99.90;;;;;;4954733;28;19921;-75
2023/01/30 19:30:17;;;;;;;;;;;1.80;99.90;;;;;;4953472;29;20171;-74
2023/01/30 19:32:43;;;;;;;;;;;1.80;99.90;;;;;;4954353;28;19914;-75
2023/01/30 19:35:10;;;;;;;;;;;1.80;99.90;;;;;;4954563;28;19907;-76
2023/01/30 19:37:38;;;;;;;;;;;1.70;99.90;;;;;;4953311;28;19929;-75
2023/01/30 19:40:07;;;;;;;;;;;1.70;99.90;;;;;;4954045;28;19917;-75
2023/01/30 19:42:34;;;;;;;;;;;1.70;99.90;;;;;;4953661;28;20021;-75
2023/01/30 19:45:00;;;;;;;;;;;1.70;99.90;;;;;;4953261;28;20391;-75
2023/01/30 19:47:26;;;;;;;;;;;1.60;99.90;;;;;;4952283;28;19922;-75
2023/01/30 19:49:53;;;;;;;;;;;1.60;99.90;;;;;;4952771;29;20011;-74
2023/01/30 19:52:19;;;;;;;;;;;1.60;99.90;;;;;;4954026;28;19925;-75
2023/01/30 19:54:45;;;;;;;;;;;1.60;99.90;;;;;;4954110;28;20406;-74
2023/01/30 19:57:12;;;;;;;;;;;1.50;99.90;;;;;;4954151;28;20287;-75
2023/01/30 19:59:37;;;;;;;;;;;1.50;99.90;;;;;;4954312;28;19917;-75
2023/01/30 20:02:04;;;;;;;;;;;1.50;99.90;;;;;;4953996;28;19906;-75
2023/01/30 20:04:30;;;;;;;;;;;1.40;99.90;;;;;;4952549;29;19996;-76
2023/01/30 20:06:56;;;;;;;;;;;1.40;99.90;;;;;;4952622;29;20004;-77
2023/01/30 20:09:23;;;;;;;;;;;1.30;99.90;;;;;;4953904;28;20049;-75
2023/01/30 20:11:49;;;;;;;;;;;1.30;99.90;;;;;;4953743;29;20265;-75
2023/01/30 20:14:15;;;;;;;;;;;1.20;99.90;;;;;;4953449;28;19918;-74
2023/01/30 20:16:41;;;;;;;;;;;1.20;99.90;;;;;;4953881;28;19979;-76
2023/01/30 20:19:15;;;;;;;;;;;1.10;99.90;;;;;;4952420;29;19928;-73
2023/01/30 20:21:41;;;;;;;;;;;1.10;99.90;;;;;;4953682;28;19997;-75
2023/01/30 20:24:08;;;;;;;;;;;1.10;99.90;;;;;;4952341;29;20605;-74
2023/01/30 20:26:38;;;;;;;;;;;1.00;99.90;;;;;;4952159;28;20105;-75
2023/01/30 20:29:05;;;;;;;;;;;1.00;99.90;;;;;;4952329;29;19906;-75
2023/01/30 20:31:33;;;;;;;;;;;0.90;99.90;;;;;;4953670;28;19906;-74
2023/01/30 20:34:00;;;;;;;;;;;0.90;99.90;;;;;;4953464;28;20673;-76
2023/01/30 20:36:27;;;;;;;;;;;0.90;99.90;;;;;;4953449;28;19910;-77
2023/01/30 20:38:54;;;;;;;;;;;0.90;99.90;;;;;;4952107;29;19914;-75
2023/01/30 20:41:21;;;;;;;;;;;1.00;99.90;;;;;;4951666;28;19911;-76
2023/01/30 20:43:50;;;;;;;;;;;1.10;99.90;;;;;;4953232;28;20394;-74
2023/01/30 20:46:18;;;;;;;;;;;1.20;99.90;;;;;;4951831;28;19957;-76
2023/01/30 20:48:44;;;;;;;;;;;1.30;99.90;;;;;;4951751;29;20001;-74
2023/01/30 20:51:11;;;;;;;;;;;1.40;99.90;;;;;;4951761;29;19958;-76
2023/01/30 20:53:37;;;;;;;;;;;1.40;99.90;;;;;;4951472;28;19921;-76
2023/01/30 20:56:03;;;;;;;;;;;1.50;99.90;;;;;;4953118;28;19918;-74
2023/01/30 20:58:29;;;;;;;;;;;1.50;99.90;;;;;;4951656;29;19946;-74
2023/01/30 21:00:55;;;;;;;;;;;1.60;99.90;;;;;;4952931;28;19960;-79
2023/01/30 21:03:26;;;;;;;;;;;1.60;99.90;;;;;;4953077;28;19957;-75
2023/01/30 21:05:56;;;;;;;;;;;1.50;99.90;;;;;;4952910;29;19907;-75
2023/01/30 21:08:23;;;;;;;;;;;1.60;99.90;;;;;;4952491;28;19948;-76
2023/01/30 21:10:50;;;;;;;;;;;1.60;99.90;;;;;;4952693;28;19910;-76
2023/01/30 21:13:15;;;;;;;;;;;1.60;99.90;;;;;;4952682;28;19921;-76
2023/01/30 21:15:41;;;;;;;;;;;1.60;99.90;;;;;;4951559;29;19910;-75
2023/01/30 21:18:07;;;;;;;;;;;1.70;99.90;;;;;;4952579;28;20371;-75
2023/01/30 21:20:32;;;;;;;;;;;1.60;99.90;;;;;;4952681;29;20422;-74
2023/01/30 21:22:58;;;;;;;;;;;1.60;99.90;;;;;;4952487;28;20308;-74
2023/01/30 21:25:24;;;;;;;;;;;1.60;99.90;;;;;;4951631;29;19914;-74
2023/01/30 21:27:49;;;;;;;;;;;1.60;99.90;;;;;;4952319;29;19927;-75
2023/01/30 21:30:15;;;;;;;;;;;1.60;99.90;;;;;;4952616;29;20268;-74
2023/01/30 21:32:41;;;;;;;;;;;1.60;99.90;;;;;;4951068;28;19914;-75
2023/01/30 21:35:07;;;;;;;;;;;1.60;99.90;;;;;;4951198;29;20362;-76
2023/01/30 21:43:13;;;;;;;;;;;1.60;99.90;;;;;;4952745;29;20009;-74
2023/01/30 21:45:39;;;;;;;;;;;1.60;99.90;;;;;;4950996;28;19907;-75
2023/01/30 21:48:05;;;;;;;;;;;1.60;99.90;;;;;;4950746;29;20026;-74
2023/01/30 21:50:30;;;;;;;;;;;1.60;99.90;;;;;;4951043;29;20332;-74
2023/01/30 21:52:56;;;;;;;;;;;1.70;99.90;;;;;;4952585;29;19919;-75
2023/01/30 21:55:21;;;;;;;;;;;1.80;99.90;;;;;;4952233;29;20331;-75
2023/01/30 21:57:47;;;;;;;;;;;1.70;99.90;;;;;;4952142;29;19906;-74
2023/01/30 22:00:13;;;;;;;;;;;1.70;99.90;;;;;;4951059;28;19917;-74
2023/01/30 22:02:38;;;;;;;;;;;1.70;99.90;;;;;;4951875;28;20332;-76
2023/01/30 22:05:04;;;;;;;;;;;1.70;99.90;;;;;;4954577;28;19914;-75
2023/01/30 22:07:30;;;;;;;;;;;1.70;99.90;;;;;;4955242;29;19913;-74
2023/01/30 22:09:55;;;;;;;;;;;1.90;99.90;;;;;;4954689;28;20307;-75
2023/01/30 22:12:21;;;;;;;;;;;1.90;99.90;;;;;;4955865;29;19910;-73
2023/01/30 22:14:47;;;;;;;;;;;2.00;99.90;;;;;;4954781;29;19917;-76
2023/01/30 22:17:12;;;;;;;;;;;2.10;99.90;;;;;;4956114;28;19973;-75
2023/01/30 22:19:38;;;;;;;;;;;2.20;99.90;;;;;;4956065;28;19914;-74
2023/01/30 22:22:03;;;;;;;;;;;2.30;99.90;;;;;;4955854;29;19937;-74
2023/01/30 22:24:29;;;;;;;;;;;2.40;99.90;;;;;;4954589;29;19907;-74
2023/01/30 22:26:55;;;;;;;;;;;2.30;99.90;;;;;;4955904;28;19914;-74
2023/01/30 22:29:20;;;;;;;;;;;2.20;99.90;;;;;;4954750;29;20426;-75
2023/01/30 22:31:46;;;;;;;;;;;2.30;99.90;;;;;;4954274;29;20395;-75
2023/01/30 22:34:11;;;;;;;;;;;2.20;99.90;;;;;;4955585;29;20001;-75
2023/01/30 22:36:37;;;;;;;;;;;2.20;99.90;;;;;;4955641;29;20402;-76
2023/01/30 22:39:03;;;;;;;;;;;2.20;99.90;;;;;;4955457;28;20041;-76
2023/01/30 22:41:30;;;;;;;;;;;2.20;99.90;;;;;;4955737;28;20001;-75
2023/01/30 22:43:57;;;;;;;;;;;2.10;99.90;;;;;;4955537;28;19917;-74
2023/01/30 22:46:24;;;;;;;;;;;2.10;99.90;;;;;;4954471;28;19917;-76
2023/01/30 22:48:49;;;;;;;;;;;2.00;99.90;;;;;;4953956;28;19922;-76
2023/01/30 22:51:17;;;;;;;;;;;1.90;99.90;;;;;;4953952;28;19929;-75
2023/01/30 22:53:43;;;;;;;;;;;1.80;99.90;;;;;;4955270;28;20378;-75
2023/01/30 22:56:10;;;;;;;;;;;1.80;99.90;;;;;;4953846;29;20397;-74
2023/01/30 22:58:36;;;;;;;;;;;1.80;99.90;;;;;;4955130;28;20046;-74
2023/01/30 23:01:05;;;;;;;;;;;1.80;99.90;;;;;;4955245;29;19992;-75
2023/01/30 23:03:30;;;;;;;;;;;1.70;99.90;;;;;;4954045;28;20272;-75
2023/01/30 23:05:56;;;;;;;;;;;1.70;99.90;;;;;;4953717;29;19910;-75
2023/01/30 23:08:22;;;;;;;;;;;1.80;99.90;;;;;;4953901;29;19949;-75
2023/01/30 23:10:47;;;;;;;;;;;1.80;99.90;;;;;;4953402;29;20004;-74
2023/01/30 23:13:15;;;;;;;;;;;1.90;99.90;;;;;;4953339;29;20406;-75
2023/01/30 23:15:41;;;;;;;;;;;2.00;99.90;;;;;;4953764;28;19915;-75
2023/01/30 23:20:54;;;;;;;;;;;2.00;99.90;;;;;;4954769;29;19913;-76
2023/01/30 23:23:20;;;;;;;;;;;2.00;99.90;;;;;;4953493;29;19910;-75
2023/01/30 23:25:45;;;;;;;;;;;2.00;99.90;;;;;;4954775;28;19907;-75
2023/01/30 23:28:11;;;;;;;;;;;2.10;99.90;;;;;;4953352;28;19937;-75
2023/01/30 23:30:37;;;;;;;;;;;2.10;99.90;;;;;;4954696;28;20291;-74
2023/01/30 23:33:03;;;;;;;;;;;2.20;99.90;;;;;;4954704;28;19919;-75
2023/01/30 23:35:28;;;;;;;;;;;2.10;99.90;;;;;;4954520;28;20056;-76
2023/01/30 23:40:38;;;;;;;;;;;2.20;99.90;;;;;;4954350;29;19917;-75
2023/01/30 23:43:04;;;;;;;;;;;2.20;99.90;;;;;;4954207;28;20506;-74
2023/01/30 23:45:29;;;;;;;;;;;2.20;99.90;;;;;;4954269;28;19914;-75
2023/01/30 23:47:55;;;;;;;;;;;2.20;99.90;;;;;;4952876;29;19922;-75
2023/01/30 23:50:20;;;;;;;;;;;2.20;99.90;;;;;;4952912;29;20033;-76
2023/01/30 23:52:46;;;;;;;;;;;2.20;99.90;;;;;;4954139;29;19973;-75
2023/01/30 23:55:11;;;;;;;;;;;2.30;99.90;;;;;;4954158;28;20350;-75
2023/01/30 23:57:37;;;;;;;;;;;2.30;99.90;;;;;;4954336;28;19910;-75
